PWSweather.com
Personal Weather Stations
Station Observations
KNCDUNN5
Dunn, NC

Dunn, NC

Lat: 35.353324, Lon: -78.558324

Elevation: 226

Station Type: AcuRite Pro Weather Center 5-in-1

Latest ConditionsUpdated 2:52:53 AM EDT Sunday, Jul 23, 2017
Currently Today's Max Today's Min Today's Average
Temperature 79.0°F26.1°C 82.2°F27.9°C 79.0°F26.1°C 80.6°F27.0°C
Dew Point 71.5°F21.9°C 71.8°F22.1°C 70.8°F21.6°C 71.4°F21.9°C
Winds 6.3 mph SW10.1 kmh SW 8.9 mph SSW14.3 kmh SSW - 4.9 mph 7.9 kmh
Wind Gusts 8.3 mph13.4 kmh 8.9 mph14.3 kmh - -
Humidity 78% 78% 69% 74%
Pressure 29.86 in1011.2 mb 29.90 in1012.5 mb 29.86 in1011.2 mb -
Hour Temp Dew Point Humidity Winds Wind Gusts Pressure Precip Precip Rate Daily Precip Total
02:52 AM 79.0°F26.1°C 71.5°F21.9°C 78% 6.8 mph SW10.9 kmh SW 8.3 mph13.4 kmh 29.86 in1011.2 mb 0.00 in0.0 mm 0.00 in0.0 mm 0.00 in0.0 mm
02:51 AM 79.0°F26.1°C 71.5°F21.9°C 78% 5.8 mph S9.3 kmh S 8.3 mph13.4 kmh 29.86 in1011.2 mb 0.00 in0.0 mm 0.00 in0.0 mm 0.00 in0.0 mm
02:50 AM 79.0°F26.1°C 71.5°F21.9°C 78% 4.2 mph W6.8 kmh W 8.3 mph13.4 kmh 29.86 in1011.2 mb 0.00 in0.0 mm 0.00 in0.0 mm 0.00 in0.0 mm
02:49 AM 79.0°F26.1°C 71.5°F21.9°C 78% 5.3 mph SSE8.5 kmh SSE 8.3 mph13.4 kmh 29.86 in1011.2 mb 0.00 in0.0 mm 0.00 in0.0 mm 0.00 in0.0 mm
02:48 AM 79.2°F26.2°C 71.7°F22.1°C 78% 3.2 mph W5.1 kmh W 8.3 mph13.4 kmh 29.86 in1011.2 mb 0.00 in0.0 mm 0.00 in0.0 mm 0.00 in0.0 mm
02:47 AM 79.2°F26.2°C 71.7°F22.1°C 78% 6.3 mph SSW10.1 kmh SSW 8.3 mph13.4 kmh 29.86 in1011.2 mb 0.00 in0.0 mm 0.00 in0.0 mm 0.00 in0.0 mm
02:46 AM 79.2°F26.2°C 71.7°F22.1°C 78% 7.8 mph SSW12.6 kmh SSW 7.8 mph12.6 kmh 29.86 in1011.2 mb 0.00 in0.0 mm 0.00 in0.0 mm 0.00 in0.0 mm
02:45 AM 79.2°F26.2°C 71.7°F22.1°C 78% 5.8 mph SSW9.3 kmh SSW 6.8 mph10.9 kmh 29.86 in1011.2 mb 0.00 in0.0 mm 0.00 in0.0 mm 0.00 in0.0 mm
02:44 AM 79.2°F26.2°C 71.7°F22.1°C 78% 4.7 mph W7.6 kmh W 6.8 mph10.9 kmh 29.86 in1011.2 mb 0.00 in0.0 mm 0.00 in0.0 mm 0.00 in0.0 mm
02:43 AM 79.2°F26.2°C 71.7°F22.1°C 78% 4.7 mph W7.6 kmh W 6.8 mph10.9 kmh 29.86 in1011.2 mb 0.00 in0.0 mm 0.00 in0.0 mm 0.00 in0.0 mm
02:42 AM 79.2°F26.2°C 71.7°F22.1°C 78% 5.3 mph W8.5 kmh W 6.8 mph10.9 kmh 29.86 in1011.2 mb 0.00 in0.0 mm 0.00 in0.0 mm 0.00 in0.0 mm
02:41 AM 79.2°F26.2°C 71.7°F22.1°C 78% 4.2 mph SSW6.8 kmh SSW 6.8 mph10.9 kmh 29.86 in1011.2 mb 0.00 in0.0 mm 0.00 in0.0 mm 0.00 in0.0 mm
02:40 AM 79.2°F26.2°C 71.7°F22.1°C 78% 4.2 mph S6.8 kmh S 6.8 mph10.9 kmh 29.86 in1011.2 mb 0.00 in0.0 mm 0.00 in0.0 mm 0.00 in0.0 mm
02:39 AM 79.3°F26.3°C 71.8°F22.1°C 78% 3.7 mph W6.0 kmh W 6.8 mph10.9 kmh 29.86 in1011.2 mb 0.00 in0.0 mm 0.00 in0.0 mm 0.00 in0.0 mm
02:38 AM 79.3°F26.3°C 71.4°F21.9°C 77% 5.3 mph SW8.5 kmh SW 6.8 mph10.9 kmh 29.86 in1011.2 mb 0.00 in0.0 mm 0.00 in0.0 mm 0.00 in0.0 mm
02:37 AM 79.3°F26.3°C 71.4°F21.9°C 77% 3.7 mph SW6.0 kmh SW 7.3 mph11.7 kmh 29.87 in1011.5 mb 0.00 in0.0 mm 0.00 in0.0 mm 0.00 in0.0 mm
02:36 AM 79.3°F26.3°C 71.4°F21.9°C 77% 6.3 mph SW10.1 kmh SW 7.3 mph11.7 kmh 29.87 in1011.5 mb 0.00 in0.0 mm 0.00 in0.0 mm 0.00 in0.0 mm
02:35 AM 79.3°F26.3°C 71.4°F21.9°C 77% 5.8 mph WSW9.3 kmh WSW 7.3 mph11.7 kmh 29.87 in1011.5 mb 0.00 in0.0 mm 0.00 in0.0 mm 0.00 in0.0 mm
02:34 AM 79.3°F26.3°C 71.4°F21.9°C 77% 4.7 mph W7.6 kmh W 7.3 mph11.7 kmh 29.87 in1011.5 mb 0.00 in0.0 mm 0.00 in0.0 mm 0.00 in0.0 mm
02:33 AM 79.3°F26.3°C 71.4°F21.9°C 77% 3.7 mph W6.0 kmh W 7.3 mph11.7 kmh 29.87 in1011.5 mb 0.00 in0.0 mm 0.00 in0.0 mm 0.00 in0.0 mm
02:32 AM 79.5°F26.4°C 71.6°F22.0°C 77% 4.7 mph SSE7.6 kmh SSE 7.3 mph11.7 kmh 29.87 in1011.5 mb 0.00 in0.0 mm 0.00 in0.0 mm 0.00 in0.0 mm
02:31 AM 79.5°F26.4°C 71.6°F22.0°C 77% 6.3 mph S10.1 kmh S 7.3 mph11.7 kmh 29.87 in1011.5 mb 0.00 in0.0 mm 0.00 in0.0 mm 0.00 in0.0 mm
02:30 AM 79.5°F26.4°C 71.6°F22.0°C 77% 6.8 mph SSW10.9 kmh SSW 7.3 mph11.7 kmh 29.87 in1011.5 mb 0.00 in0.0 mm 0.00 in0.0 mm 0.00 in0.0 mm
02:29 AM 79.5°F26.4°C 71.6°F22.0°C 77% 6.3 mph SW10.1 kmh SW 7.3 mph11.7 kmh 29.87 in1011.5 mb 0.00 in0.0 mm 0.00 in0.0 mm 0.00 in0.0 mm
02:28 AM 79.5°F26.4°C 71.6°F22.0°C 77% 4.7 mph SSW7.6 kmh SSW 7.3 mph11.7 kmh 29.87 in1011.5 mb 0.00 in0.0 mm 0.00 in0.0 mm 0.00 in0.0 mm
02:27 AM 79.5°F26.4°C 71.6°F22.0°C 77% 7.3 mph SSW11.7 kmh SSW 7.3 mph11.7 kmh 29.87 in1011.5 mb 0.00 in0.0 mm 0.00 in0.0 mm 0.00 in0.0 mm
02:26 AM 79.5°F26.4°C 71.6°F22.0°C 77% 3.7 mph S6.0 kmh S 6.8 mph10.9 kmh 29.87 in1011.5 mb 0.00 in0.0 mm 0.00 in0.0 mm 0.00 in0.0 mm
02:25 AM 79.5°F26.4°C 71.6°F22.0°C 77% 4.2 mph SSW6.8 kmh SSW 6.8 mph10.9 kmh 29.87 in1011.5 mb 0.00 in0.0 mm 0.00 in0.0 mm 0.00 in0.0 mm
02:24 AM 79.5°F26.4°C 71.6°F22.0°C 77% 6.3 mph WSW10.1 kmh WSW 6.8 mph10.9 kmh 29.87 in1011.5 mb 0.00 in0.0 mm 0.00 in0.0 mm 0.00 in0.0 mm
02:23 AM 79.5°F26.4°C 71.6°F22.0°C 77% 5.3 mph SE8.5 kmh SE 6.8 mph10.9 kmh 29.87 in1011.5 mb 0.00 in0.0 mm 0.00 in0.0 mm 0.00 in0.0 mm
02:22 AM 79.7°F26.5°C 71.8°F22.1°C 77% 6.3 mph SSW10.1 kmh SSW 6.8 mph10.9 kmh 29.87 in1011.5 mb 0.00 in0.0 mm 0.00 in0.0 mm 0.00 in0.0 mm
02:21 AM 79.7°F26.5°C 71.8°F22.1°C 77% 6.3 mph SSW10.1 kmh SSW 8.9 mph14.3 kmh 29.87 in1011.5 mb 0.00 in0.0 mm 0.00 in0.0 mm 0.00 in0.0 mm
02:20 AM 79.7°F26.5°C 71.8°F22.1°C 77% 4.2 mph SSW6.8 kmh SSW 8.9 mph14.3 kmh 29.87 in1011.5 mb 0.00 in0.0 mm 0.00 in0.0 mm 0.00 in0.0 mm
02:19 AM 79.7°F26.5°C 71.8°F22.1°C 77% 3.7 mph SSW6.0 kmh SSW 8.9 mph14.3 kmh 29.87 in1011.5 mb 0.00 in0.0 mm 0.00 in0.0 mm 0.00 in0.0 mm
02:18 AM 79.7°F26.5°C 71.8°F22.1°C 77% 4.7 mph WSW7.6 kmh WSW 8.9 mph14.3 kmh 29.87 in1011.5 mb 0.00 in0.0 mm 0.00 in0.0 mm 0.00 in0.0 mm
02:17 AM 79.7°F26.5°C 71.8°F22.1°C 77% 6.8 mph SSW10.9 kmh SSW 8.9 mph14.3 kmh 29.87 in1011.5 mb 0.00 in0.0 mm 0.00 in0.0 mm 0.00 in0.0 mm
02:16 AM 79.9°F26.6°C 71.6°F22.0°C 76% 4.2 mph W6.8 kmh W 8.9 mph14.3 kmh 29.87 in1011.5 mb 0.00 in0.0 mm 0.00 in0.0 mm 0.00 in0.0 mm
02:15 AM 79.9°F26.6°C 71.6°F22.0°C 76% 4.2 mph SSW6.8 kmh SSW 8.9 mph14.3 kmh 29.87 in1011.5 mb 0.00 in0.0 mm 0.00 in0.0 mm 0.00 in0.0 mm
02:14 AM 79.9°F26.6°C 71.6°F22.0°C 76% 5.8 mph W9.3 kmh W 8.9 mph14.3 kmh 29.87 in1011.5 mb 0.00 in0.0 mm 0.00 in0.0 mm 0.00 in0.0 mm
02:13 AM 79.9°F26.6°C 71.6°F22.0°C 76% 4.7 mph W7.6 kmh W 8.9 mph14.3 kmh 29.86 in1011.2 mb 0.00 in0.0 mm 0.00 in0.0 mm 0.00 in0.0 mm
02:12 AM 79.9°F26.6°C 71.6°F22.0°C 76% 5.8 mph S9.3 kmh S 8.9 mph14.3 kmh 29.86 in1011.2 mb 0.00 in0.0 mm 0.00 in0.0 mm 0.00 in0.0 mm
02:11 AM 79.9°F26.6°C 71.6°F22.0°C 76% 8.9 mph W14.3 kmh W 8.9 mph14.3 kmh 29.86 in1011.2 mb 0.00 in0.0 mm 0.00 in0.0 mm 0.00 in0.0 mm
02:10 AM 79.9°F26.6°C 71.6°F22.0°C 76% 5.3 mph W8.5 kmh W 6.8 mph10.9 kmh 29.86 in1011.2 mb 0.00 in0.0 mm 0.00 in0.0 mm 0.00 in0.0 mm
02:09 AM 79.9°F26.6°C 71.6°F22.0°C 76% 4.7 mph SW7.6 kmh SW 6.8 mph10.9 kmh 29.86 in1011.2 mb 0.00 in0.0 mm 0.00 in0.0 mm 0.00 in0.0 mm
02:08 AM 79.9°F26.6°C 71.6°F22.0°C 76% 4.2 mph S6.8 kmh S 6.8 mph10.9 kmh 29.86 in1011.2 mb 0.00 in0.0 mm 0.00 in0.0 mm 0.00 in0.0 mm
02:07 AM 79.9°F26.6°C 71.6°F22.0°C 76% 2.2 mph WNW3.5 kmh WNW 6.8 mph10.9 kmh 29.86 in1011.2 mb 0.00 in0.0 mm 0.00 in0.0 mm 0.00 in0.0 mm
02:06 AM 80.1°F26.7°C 71.8°F22.1°C 76% 4.7 mph SW7.6 kmh SW 6.8 mph10.9 kmh 29.86 in1011.2 mb 0.00 in0.0 mm 0.00 in0.0 mm 0.00 in0.0 mm
02:05 AM 80.1°F26.7°C 71.8°F22.1°C 76% 4.7 mph SW7.6 kmh SW 6.8 mph10.9 kmh 29.86 in1011.2 mb 0.00 in0.0 mm 0.00 in0.0 mm 0.00 in0.0 mm
02:03 AM 80.1°F26.7°C 71.4°F21.9°C 75% 4.7 mph SW7.6 kmh SW 6.8 mph10.9 kmh 29.86 in1011.2 mb 0.00 in0.0 mm 0.00 in0.0 mm 0.00 in0.0 mm
02:02 AM 80.1°F26.7°C 71.4°F21.9°C 75% 4.7 mph SW7.6 kmh SW 6.8 mph10.9 kmh 29.86 in1011.2 mb 0.00 in0.0 mm 0.00 in0.0 mm 0.00 in0.0 mm
02:01 AM 80.1°F26.7°C 71.4°F21.9°C 75% 6.8 mph SSW10.9 kmh SSW 7.3 mph11.7 kmh 29.88 in1011.9 mb 0.00 in0.0 mm 0.00 in0.0 mm 0.00 in0.0 mm
02:00 AM 80.2°F26.8°C 71.5°F21.9°C 75% 2.7 mph WSW4.3 kmh WSW 7.3 mph11.7 kmh 29.88 in1011.9 mb 0.00 in0.0 mm 0.00 in0.0 mm 0.00 in0.0 mm
01:59 AM 80.2°F26.8°C 71.5°F21.9°C 75% 4.7 mph S7.6 kmh S 7.3 mph11.7 kmh 29.88 in1011.9 mb 0.00 in0.0 mm 0.00 in0.0 mm 0.00 in0.0 mm
01:58 AM 80.2°F26.8°C 71.5°F21.9°C 75% 5.3 mph ESE8.5 kmh ESE 7.3 mph11.7 kmh 29.88 in1011.9 mb 0.00 in0.0 mm 0.00 in0.0 mm 0.00 in0.0 mm
01:57 AM 80.2°F26.8°C 71.5°F21.9°C 75% 6.8 mph SSW10.9 kmh SSW 8.3 mph13.4 kmh 29.88 in1011.9 mb 0.00 in0.0 mm 0.00 in0.0 mm 0.00 in0.0 mm
01:56 AM 80.2°F26.8°C 71.5°F21.9°C 75% 4.2 mph ESE6.8 kmh ESE 8.3 mph13.4 kmh 29.88 in1011.9 mb 0.00 in0.0 mm 0.00 in0.0 mm 0.00 in0.0 mm
01:55 AM 80.2°F26.8°C 71.5°F21.9°C 75% 3.7 mph W6.0 kmh W 8.3 mph13.4 kmh 29.88 in1011.9 mb 0.00 in0.0 mm 0.00 in0.0 mm 0.00 in0.0 mm
01:54 AM 80.2°F26.8°C 71.5°F21.9°C 75% 5.8 mph S9.3 kmh S 8.3 mph13.4 kmh 29.88 in1011.9 mb 0.00 in0.0 mm 0.00 in0.0 mm 0.00 in0.0 mm
01:53 AM 80.4°F26.9°C 71.7°F22.1°C 75% 4.7 mph S7.6 kmh S 8.3 mph13.4 kmh 29.88 in1011.9 mb 0.00 in0.0 mm 0.00 in0.0 mm 0.00 in0.0 mm
01:52 AM 80.4°F26.9°C 71.7°F22.1°C 75% 5.8 mph S9.3 kmh S 8.3 mph13.4 kmh 29.88 in1011.9 mb 0.00 in0.0 mm 0.00 in0.0 mm 0.00 in0.0 mm
01:51 AM 80.4°F26.9°C 71.7°F22.1°C 75% 7.3 mph SSW11.7 kmh SSW 8.3 mph13.4 kmh 29.88 in1011.9 mb 0.00 in0.0 mm 0.00 in0.0 mm 0.00 in0.0 mm
01:50 AM 80.4°F26.9°C 71.7°F22.1°C 75% 5.3 mph S8.5 kmh S 8.3 mph13.4 kmh 29.88 in1011.9 mb 0.00 in0.0 mm 0.00 in0.0 mm 0.00 in0.0 mm
01:49 AM 80.4°F26.9°C 71.7°F22.1°C 75% 4.2 mph W6.8 kmh W 8.3 mph13.4 kmh 29.88 in1011.9 mb 0.00 in0.0 mm 0.00 in0.0 mm 0.00 in0.0 mm
01:48 AM 80.4°F26.9°C 71.7°F22.1°C 75% 6.8 mph SW10.9 kmh SW 8.3 mph13.4 kmh 29.88 in1011.9 mb 0.00 in0.0 mm 0.00 in0.0 mm 0.00 in0.0 mm
01:47 AM 80.4°F26.9°C 71.7°F22.1°C 75% 8.3 mph S13.4 kmh S 8.3 mph13.4 kmh 29.88 in1011.9 mb 0.00 in0.0 mm 0.00 in0.0 mm 0.00 in0.0 mm
01:46 AM 80.4°F26.9°C 71.7°F22.1°C 75% 4.2 mph S6.8 kmh S 6.8 mph10.9 kmh 29.88 in1011.9 mb 0.00 in0.0 mm 0.00 in0.0 mm 0.00 in0.0 mm
01:45 AM 80.4°F26.9°C 71.7°F22.1°C 75% 3.7 mph SSW6.0 kmh SSW 6.8 mph10.9 kmh 29.88 in1011.9 mb 0.00 in0.0 mm 0.00 in0.0 mm 0.00 in0.0 mm
01:44 AM 80.4°F26.9°C 71.7°F22.1°C 75% 4.7 mph WSW7.6 kmh WSW 6.8 mph10.9 kmh 29.88 in1011.9 mb 0.00 in0.0 mm 0.00 in0.0 mm 0.00 in0.0 mm
01:43 AM 80.4°F26.9°C 71.7°F22.1°C 75% 5.8 mph SW9.3 kmh SW 6.8 mph10.9 kmh 29.88 in1011.9 mb 0.00 in0.0 mm 0.00 in0.0 mm 0.00 in0.0 mm
01:42 AM 80.4°F26.9°C 71.7°F22.1°C 75% 6.8 mph SSW10.9 kmh SSW 6.8 mph10.9 kmh 29.88 in1011.9 mb 0.00 in0.0 mm 0.00 in0.0 mm 0.00 in0.0 mm
01:41 AM 80.4°F26.9°C 71.7°F22.1°C 75% 5.3 mph W8.5 kmh W 6.3 mph10.1 kmh 29.88 in1011.9 mb 0.00 in0.0 mm 0.00 in0.0 mm 0.00 in0.0 mm
01:40 AM 80.4°F26.9°C 71.7°F22.1°C 75% 5.8 mph SSW9.3 kmh SSW 6.3 mph10.1 kmh 29.88 in1011.9 mb 0.00 in0.0 mm 0.00 in0.0 mm 0.00 in0.0 mm
01:39 AM 80.4°F26.9°C 71.7°F22.1°C 75% 4.7 mph SW7.6 kmh SW 6.3 mph10.1 kmh 29.88 in1011.9 mb 0.00 in0.0 mm 0.00 in0.0 mm 0.00 in0.0 mm
01:38 AM 80.4°F26.9°C 71.7°F22.1°C 75% 5.3 mph W8.5 kmh W 6.3 mph10.1 kmh 29.88 in1011.9 mb 0.00 in0.0 mm 0.00 in0.0 mm 0.00 in0.0 mm
01:37 AM 80.4°F26.9°C 71.7°F22.1°C 75% 4.2 mph SSE6.8 kmh SSE 6.3 mph10.1 kmh 29.88 in1011.9 mb 0.00 in0.0 mm 0.00 in0.0 mm 0.00 in0.0 mm
01:36 AM 80.4°F26.9°C 71.7°F22.1°C 75% 3.2 mph W5.1 kmh W 6.3 mph10.1 kmh 29.88 in1011.9 mb 0.00 in0.0 mm 0.00 in0.0 mm 0.00 in0.0 mm
01:35 AM 80.4°F26.9°C 71.3°F21.8°C 74% 4.2 mph WSW6.8 kmh WSW 6.3 mph10.1 kmh 29.88 in1011.9 mb 0.00 in0.0 mm 0.00 in0.0 mm 0.00 in0.0 mm
01:34 AM 80.4°F26.9°C 71.3°F21.8°C 74% 4.2 mph WSW6.8 kmh WSW 6.8 mph10.9 kmh 29.88 in1011.9 mb 0.00 in0.0 mm 0.00 in0.0 mm 0.00 in0.0 mm
01:33 AM 80.4°F26.9°C 71.3°F21.8°C 74% 5.3 mph WSW8.5 kmh WSW 6.8 mph10.9 kmh 29.88 in1011.9 mb 0.00 in0.0 mm 0.00 in0.0 mm 0.00 in0.0 mm
01:32 AM 80.4°F26.9°C 71.3°F21.8°C 74% 4.2 mph SW6.8 kmh SW 6.8 mph10.9 kmh 29.88 in1011.9 mb 0.00 in0.0 mm 0.00 in0.0 mm 0.00 in0.0 mm
01:31 AM 80.4°F26.9°C 71.3°F21.8°C 74% 4.7 mph W7.6 kmh W 6.8 mph10.9 kmh 29.88 in1011.9 mb 0.00 in0.0 mm 0.00 in0.0 mm 0.00 in0.0 mm
01:30 AM 80.4°F26.9°C 71.3°F21.8°C 74% 3.2 mph SSW5.1 kmh SSW 6.8 mph10.9 kmh 29.88 in1011.9 mb 0.00 in0.0 mm 0.00 in0.0 mm 0.00 in0.0 mm
01:29 AM 80.4°F26.9°C 71.3°F21.8°C 74% 3.7 mph SSW6.0 kmh SSW 6.8 mph10.9 kmh 29.88 in1011.9 mb 0.00 in0.0 mm 0.00 in0.0 mm 0.00 in0.0 mm
01:28 AM 80.4°F26.9°C 71.3°F21.8°C 74% 6.3 mph WSW10.1 kmh WSW 6.8 mph10.9 kmh 29.88 in1011.9 mb 0.00 in0.0 mm 0.00 in0.0 mm 0.00 in0.0 mm
01:27 AM 80.6°F27.0°C 71.5°F21.9°C 74% 4.7 mph WSW7.6 kmh WSW 6.8 mph10.9 kmh 29.88 in1011.9 mb 0.00 in0.0 mm 0.00 in0.0 mm 0.00 in0.0 mm
01:26 AM 80.6°F27.0°C 71.5°F21.9°C 74% 4.2 mph W6.8 kmh W 6.8 mph10.9 kmh 29.88 in1011.9 mb 0.00 in0.0 mm 0.00 in0.0 mm 0.00 in0.0 mm
01:25 AM 80.6°F27.0°C 71.5°F21.9°C 74% 6.8 mph SSW10.9 kmh SSW 8.9 mph14.3 kmh 29.89 in1012.2 mb 0.00 in0.0 mm 0.00 in0.0 mm 0.00 in0.0 mm
01:24 AM 80.6°F27.0°C 71.5°F21.9°C 74% 4.2 mph SW6.8 kmh SW 8.9 mph14.3 kmh 29.89 in1012.2 mb 0.00 in0.0 mm 0.00 in0.0 mm 0.00 in0.0 mm
01:23 AM 80.6°F27.0°C 71.5°F21.9°C 74% 6.8 mph WSW10.9 kmh WSW 8.9 mph14.3 kmh 29.89 in1012.2 mb 0.00 in0.0 mm 0.00 in0.0 mm 0.00 in0.0 mm
01:22 AM 80.6°F27.0°C 71.5°F21.9°C 74% 5.3 mph W8.5 kmh W 8.9 mph14.3 kmh 29.89 in1012.2 mb 0.00 in0.0 mm 0.00 in0.0 mm 0.00 in0.0 mm
01:21 AM 80.6°F27.0°C 71.5°F21.9°C 74% 4.2 mph WSW6.8 kmh WSW 8.9 mph14.3 kmh 29.89 in1012.2 mb 0.00 in0.0 mm 0.00 in0.0 mm 0.00 in0.0 mm
01:20 AM 80.6°F27.0°C 71.5°F21.9°C 74% 5.3 mph SSW8.5 kmh SSW 8.9 mph14.3 kmh 29.89 in1012.2 mb 0.00 in0.0 mm 0.00 in0.0 mm 0.00 in0.0 mm
01:19 AM 80.6°F27.0°C 71.5°F21.9°C 74% 6.3 mph SSW10.1 kmh SSW 8.9 mph14.3 kmh 29.89 in1012.2 mb 0.00 in0.0 mm 0.00 in0.0 mm 0.00 in0.0 mm
01:18 AM 80.6°F27.0°C 71.5°F21.9°C 74% 4.2 mph WSW6.8 kmh WSW 8.9 mph14.3 kmh 29.89 in1012.2 mb 0.00 in0.0 mm 0.00 in0.0 mm 0.00 in0.0 mm
01:17 AM 80.6°F27.0°C 71.5°F21.9°C 74% 4.7 mph WSW7.6 kmh WSW 8.9 mph14.3 kmh 29.89 in1012.2 mb 0.00 in0.0 mm 0.00 in0.0 mm 0.00 in0.0 mm
01:16 AM 80.6°F27.0°C 71.5°F21.9°C 74% 5.3 mph SSE8.5 kmh SSE 8.9 mph14.3 kmh 29.89 in1012.2 mb 0.00 in0.0 mm 0.00 in0.0 mm 0.00 in0.0 mm
01:15 AM 80.6°F27.0°C 71.5°F21.9°C 74% 7.3 mph S11.7 kmh S 7.3 mph11.7 kmh 29.89 in1012.2 mb 0.00 in0.0 mm 0.00 in0.0 mm 0.00 in0.0 mm
01:14 AM 80.6°F27.0°C 71.1°F21.7°C 73% 3.7 mph E6.0 kmh E 5.8 mph9.3 kmh 29.89 in1012.2 mb 0.00 in0.0 mm 0.00 in0.0 mm 0.00 in0.0 mm
01:13 AM 80.8°F27.1°C 71.3°F21.8°C 73% 4.7 mph SSW7.6 kmh SSW 5.8 mph9.3 kmh 29.89 in1012.2 mb 0.00 in0.0 mm 0.00 in0.0 mm 0.00 in0.0 mm
01:12 AM 80.8°F27.1°C 71.3°F21.8°C 73% 4.2 mph SW6.8 kmh SW 6.8 mph10.9 kmh 29.90 in1012.5 mb 0.00 in0.0 mm 0.00 in0.0 mm 0.00 in0.0 mm
01:11 AM 80.8°F27.1°C 71.3°F21.8°C 73% 4.2 mph SW6.8 kmh SW 6.8 mph10.9 kmh 29.90 in1012.5 mb 0.00 in0.0 mm 0.00 in0.0 mm 0.00 in0.0 mm
01:10 AM 80.8°F27.1°C 71.3°F21.8°C 73% 3.7 mph WSW6.0 kmh WSW 6.8 mph10.9 kmh 29.90 in1012.5 mb 0.00 in0.0 mm 0.00 in0.0 mm 0.00 in0.0 mm
01:09 AM 80.8°F27.1°C 71.3°F21.8°C 73% 4.2 mph SSW6.8 kmh SSW 6.8 mph10.9 kmh 29.90 in1012.5 mb 0.00 in0.0 mm 0.00 in0.0 mm 0.00 in0.0 mm
01:08 AM 80.8°F27.1°C 71.3°F21.8°C 73% 4.2 mph SW6.8 kmh SW 6.8 mph10.9 kmh 29.90 in1012.5 mb 0.00 in0.0 mm 0.00 in0.0 mm 0.00 in0.0 mm
01:07 AM 80.8°F27.1°C 71.3°F21.8°C 73% 4.2 mph SE6.8 kmh SE 6.8 mph10.9 kmh 29.90 in1012.5 mb 0.00 in0.0 mm 0.00 in0.0 mm 0.00 in0.0 mm
01:06 AM 80.8°F27.1°C 71.3°F21.8°C 73% 5.8 mph W9.3 kmh W 6.8 mph10.9 kmh 29.90 in1012.5 mb 0.00 in0.0 mm 0.00 in0.0 mm 0.00 in0.0 mm
01:05 AM 81.0°F27.2°C 71.5°F21.9°C 73% 4.7 mph SSW7.6 kmh SSW 6.8 mph10.9 kmh 29.90 in1012.5 mb 0.00 in0.0 mm 0.00 in0.0 mm 0.00 in0.0 mm
01:04 AM 81.0°F27.2°C 71.5°F21.9°C 73% 3.2 mph W5.1 kmh W 6.8 mph10.9 kmh 29.90 in1012.5 mb 0.00 in0.0 mm 0.00 in0.0 mm 0.00 in0.0 mm
01:03 AM 81.0°F27.2°C 71.1°F21.7°C 72% 4.7 mph W7.6 kmh W 6.8 mph10.9 kmh 29.90 in1012.5 mb 0.00 in0.0 mm 0.00 in0.0 mm 0.00 in0.0 mm
01:02 AM 81.0°F27.2°C 71.1°F21.7°C 72% 4.7 mph W7.6 kmh W 6.3 mph10.1 kmh 29.90 in1012.5 mb 0.00 in0.0 mm 0.00 in0.0 mm 0.00 in0.0 mm
01:01 AM 81.1°F27.3°C 71.2°F21.8°C 72% 5.3 mph SW8.5 kmh SW 6.3 mph10.1 kmh 29.89 in1012.2 mb 0.00 in0.0 mm 0.00 in0.0 mm 0.00 in0.0 mm
01:00 AM 81.1°F27.3°C 71.2°F21.8°C 72% 3.7 mph WSW6.0 kmh WSW 6.3 mph10.1 kmh 29.89 in1012.2 mb 0.00 in0.0 mm 0.00 in0.0 mm 0.00 in0.0 mm
12:59 AM 81.1°F27.3°C 71.2°F21.8°C 72% 4.2 mph W6.8 kmh W 6.8 mph10.9 kmh 29.89 in1012.2 mb 0.00 in0.0 mm 0.00 in0.0 mm 0.00 in0.0 mm
12:58 AM 81.1°F27.3°C 71.2°F21.8°C 72% 6.3 mph SSW10.1 kmh SSW 6.8 mph10.9 kmh 29.89 in1012.2 mb 0.00 in0.0 mm 0.00 in0.0 mm 0.00 in0.0 mm
12:57 AM 81.1°F27.3°C 71.2°F21.8°C 72% 3.2 mph SW5.1 kmh SW 6.8 mph10.9 kmh 29.89 in1012.2 mb 0.00 in0.0 mm 0.00 in0.0 mm 0.00 in0.0 mm
12:56 AM 81.1°F27.3°C 71.2°F21.8°C 72% 4.7 mph SSW7.6 kmh SSW 6.8 mph10.9 kmh 29.89 in1012.2 mb 0.00 in0.0 mm 0.00 in0.0 mm 0.00 in0.0 mm
12:55 AM 81.1°F27.3°C 71.2°F21.8°C 72% 3.7 mph W6.0 kmh W 6.8 mph10.9 kmh 29.89 in1012.2 mb 0.00 in0.0 mm 0.00 in0.0 mm 0.00 in0.0 mm
12:54 AM 81.1°F27.3°C 71.2°F21.8°C 72% 3.7 mph SW6.0 kmh SW 6.8 mph10.9 kmh 29.89 in1012.2 mb 0.00 in0.0 mm 0.00 in0.0 mm 0.00 in0.0 mm
12:53 AM 81.3°F27.4°C 71.4°F21.9°C 72% 4.2 mph W6.8 kmh W 7.3 mph11.7 kmh 29.89 in1012.2 mb 0.00 in0.0 mm 0.00 in0.0 mm 0.00 in0.0 mm
12:52 AM 81.3°F27.4°C 71.4°F21.9°C 72% 4.2 mph SSW6.8 kmh SSW 7.3 mph11.7 kmh 29.89 in1012.2 mb 0.00 in0.0 mm 0.00 in0.0 mm 0.00 in0.0 mm
12:51 AM 81.3°F27.4°C 71.4°F21.9°C 72% 5.8 mph SSW9.3 kmh SSW 7.3 mph11.7 kmh 29.89 in1012.2 mb 0.00 in0.0 mm 0.00 in0.0 mm 0.00 in0.0 mm
12:50 AM 81.3°F27.4°C 71.4°F21.9°C 72% 4.7 mph SW7.6 kmh SW 7.3 mph11.7 kmh 29.89 in1012.2 mb 0.00 in0.0 mm 0.00 in0.0 mm 0.00 in0.0 mm
12:49 AM 81.3°F27.4°C 71.4°F21.9°C 72% 6.8 mph SW10.9 kmh SW 7.3 mph11.7 kmh 29.89 in1012.2 mb 0.00 in0.0 mm 0.00 in0.0 mm 0.00 in0.0 mm
12:48 AM 81.3°F27.4°C 71.4°F21.9°C 72% 5.3 mph SSW8.5 kmh SSW 7.3 mph11.7 kmh 29.89 in1012.2 mb 0.00 in0.0 mm 0.00 in0.0 mm 0.00 in0.0 mm
12:47 AM 81.3°F27.4°C 71.4°F21.9°C 72% 4.7 mph ESE7.6 kmh ESE 7.3 mph11.7 kmh 29.89 in1012.2 mb 0.00 in0.0 mm 0.00 in0.0 mm 0.00 in0.0 mm
12:46 AM 81.3°F27.4°C 71.4°F21.9°C 72% 4.7 mph SW7.6 kmh SW 7.3 mph11.7 kmh 29.89 in1012.2 mb 0.00 in0.0 mm 0.00 in0.0 mm 0.00 in0.0 mm
12:45 AM 81.3°F27.4°C 71.4°F21.9°C 72% 4.2 mph SW6.8 kmh SW 7.3 mph11.7 kmh 29.89 in1012.2 mb 0.00 in0.0 mm 0.00 in0.0 mm 0.00 in0.0 mm
12:44 AM 81.3°F27.4°C 71.4°F21.9°C 72% 4.7 mph S7.6 kmh S 7.3 mph11.7 kmh 29.89 in1012.2 mb 0.00 in0.0 mm 0.00 in0.0 mm 0.00 in0.0 mm
12:43 AM 81.3°F27.4°C 71.4°F21.9°C 72% 4.7 mph WSW7.6 kmh WSW 6.8 mph10.9 kmh 29.89 in1012.2 mb 0.00 in0.0 mm 0.00 in0.0 mm 0.00 in0.0 mm
12:42 AM 81.3°F27.4°C 71.0°F21.7°C 71% 4.7 mph SSW7.6 kmh SSW 7.8 mph12.6 kmh 29.89 in1012.2 mb 0.00 in0.0 mm 0.00 in0.0 mm 0.00 in0.0 mm
12:41 AM 81.3°F27.4°C 71.0°F21.7°C 71% 5.8 mph SSW9.3 kmh SSW 7.8 mph12.6 kmh 29.89 in1012.2 mb 0.00 in0.0 mm 0.00 in0.0 mm 0.00 in0.0 mm
12:40 AM 81.3°F27.4°C 71.0°F21.7°C 71% 5.3 mph SSW8.5 kmh SSW 7.8 mph12.6 kmh 29.89 in1012.2 mb 0.00 in0.0 mm 0.00 in0.0 mm 0.00 in0.0 mm
12:39 AM 81.3°F27.4°C 71.0°F21.7°C 71% 3.7 mph SW6.0 kmh SW 7.8 mph12.6 kmh 29.89 in1012.2 mb 0.00 in0.0 mm 0.00 in0.0 mm 0.00 in0.0 mm
12:38 AM 81.3°F27.4°C 71.0°F21.7°C 71% 6.8 mph SW10.9 kmh SW 7.8 mph12.6 kmh 29.89 in1012.2 mb 0.00 in0.0 mm 0.00 in0.0 mm 0.00 in0.0 mm
12:37 AM 81.3°F27.4°C 71.0°F21.7°C 71% 3.7 mph NNW6.0 kmh NNW 7.8 mph12.6 kmh 29.89 in1012.2 mb 0.00 in0.0 mm 0.00 in0.0 mm 0.00 in0.0 mm
12:36 AM 81.3°F27.4°C 71.0°F21.7°C 71% 4.2 mph SW6.8 kmh SW 7.8 mph12.6 kmh 29.89 in1012.2 mb 0.00 in0.0 mm 0.00 in0.0 mm 0.00 in0.0 mm
12:35 AM 81.5°F27.5°C 71.2°F21.8°C 71% 2.2 mph W3.5 kmh W 7.8 mph12.6 kmh 29.89 in1012.2 mb 0.00 in0.0 mm 0.00 in0.0 mm 0.00 in0.0 mm
12:34 AM 81.5°F27.5°C 71.2°F21.8°C 71% 3.7 mph SW6.0 kmh SW 7.8 mph12.6 kmh 29.89 in1012.2 mb 0.00 in0.0 mm 0.00 in0.0 mm 0.00 in0.0 mm
12:33 AM 81.5°F27.5°C 71.2°F21.8°C 71% 3.7 mph W6.0 kmh W 7.8 mph12.6 kmh 29.89 in1012.2 mb 0.00 in0.0 mm 0.00 in0.0 mm 0.00 in0.0 mm
12:32 AM 81.5°F27.5°C 71.2°F21.8°C 71% 7.8 mph SW12.6 kmh SW 7.8 mph12.6 kmh 29.89 in1012.2 mb 0.00 in0.0 mm 0.00 in0.0 mm 0.00 in0.0 mm
12:31 AM 81.5°F27.5°C 71.2°F21.8°C 71% 6.3 mph SW10.1 kmh SW 7.8 mph12.6 kmh 29.89 in1012.2 mb 0.00 in0.0 mm 0.00 in0.0 mm 0.00 in0.0 mm
12:30 AM 81.5°F27.5°C 71.2°F21.8°C 71% 4.7 mph W7.6 kmh W 7.8 mph12.6 kmh 29.89 in1012.2 mb 0.00 in0.0 mm 0.00 in0.0 mm 0.00 in0.0 mm
12:29 AM 81.5°F27.5°C 71.2°F21.8°C 71% 4.2 mph W6.8 kmh W 7.8 mph12.6 kmh 29.89 in1012.2 mb 0.00 in0.0 mm 0.00 in0.0 mm 0.00 in0.0 mm
12:28 AM 81.5°F27.5°C 71.2°F21.8°C 71% 4.7 mph SW7.6 kmh SW 7.8 mph12.6 kmh 29.89 in1012.2 mb 0.00 in0.0 mm 0.00 in0.0 mm 0.00 in0.0 mm
12:27 AM 81.5°F27.5°C 71.2°F21.8°C 71% 3.7 mph W6.0 kmh W 7.8 mph12.6 kmh 29.89 in1012.2 mb 0.00 in0.0 mm 0.00 in0.0 mm 0.00 in0.0 mm
12:26 AM 81.5°F27.5°C 71.2°F21.8°C 71% 3.7 mph W6.0 kmh W 7.8 mph12.6 kmh 29.89 in1012.2 mb 0.00 in0.0 mm 0.00 in0.0 mm 0.00 in0.0 mm
12:25 AM 81.5°F27.5°C 71.2°F21.8°C 71% 4.2 mph S6.8 kmh S 7.8 mph12.6 kmh 29.89 in1012.2 mb 0.00 in0.0 mm 0.00 in0.0 mm 0.00 in0.0 mm
12:24 AM 81.5°F27.5°C 71.2°F21.8°C 71% 4.7 mph SSW7.6 kmh SSW 7.8 mph12.6 kmh 29.89 in1012.2 mb 0.00 in0.0 mm 0.00 in0.0 mm 0.00 in0.0 mm
12:23 AM 81.5°F27.5°C 71.2°F21.8°C 71% 3.7 mph S6.0 kmh S 7.8 mph12.6 kmh 29.89 in1012.2 mb 0.00 in0.0 mm 0.00 in0.0 mm 0.00 in0.0 mm
12:22 AM 81.5°F27.5°C 71.2°F21.8°C 71% 7.8 mph SSW12.6 kmh SSW 7.8 mph12.6 kmh 29.89 in1012.2 mb 0.00 in0.0 mm 0.00 in0.0 mm 0.00 in0.0 mm
12:21 AM 81.5°F27.5°C 71.2°F21.8°C 71% 4.7 mph SW7.6 kmh SW 7.3 mph11.7 kmh 29.89 in1012.2 mb 0.00 in0.0 mm 0.00 in0.0 mm 0.00 in0.0 mm
12:20 AM 81.7°F27.6°C 70.9°F21.6°C 70% 4.2 mph SSW6.8 kmh SSW 7.3 mph11.7 kmh 29.89 in1012.2 mb 0.00 in0.0 mm 0.00 in0.0 mm 0.00 in0.0 mm
12:19 AM 81.7°F27.6°C 70.9°F21.6°C 70% 4.7 mph SSW7.6 kmh SSW 7.3 mph11.7 kmh 29.89 in1012.2 mb 0.00 in0.0 mm 0.00 in0.0 mm 0.00 in0.0 mm
12:18 AM 81.7°F27.6°C 70.9°F21.6°C 70% 5.8 mph SSW9.3 kmh SSW 7.3 mph11.7 kmh 29.89 in1012.2 mb 0.00 in0.0 mm 0.00 in0.0 mm 0.00 in0.0 mm
12:17 AM 81.9°F27.7°C 71.1°F21.7°C 70% 3.7 mph S6.0 kmh S 6.8 mph10.9 kmh 29.89 in1012.2 mb 0.00 in0.0 mm 0.00 in0.0 mm 0.00 in0.0 mm
12:16 AM 81.9°F27.7°C 71.1°F21.7°C 70% 4.7 mph S7.6 kmh S 6.8 mph10.9 kmh 29.89 in1012.2 mb 0.00 in0.0 mm 0.00 in0.0 mm 0.00 in0.0 mm
12:15 AM 81.9°F27.7°C 71.1°F21.7°C 70% 4.7 mph SSW7.6 kmh SSW 6.8 mph10.9 kmh 29.89 in1012.2 mb 0.00 in0.0 mm 0.00 in0.0 mm 0.00 in0.0 mm
12:14 AM 81.9°F27.7°C 71.1°F21.7°C 70% 4.2 mph SW6.8 kmh SW 6.8 mph10.9 kmh 29.89 in1012.2 mb 0.00 in0.0 mm 0.00 in0.0 mm 0.00 in0.0 mm
12:13 AM 81.9°F27.7°C 71.1°F21.7°C 70% 5.8 mph WSW9.3 kmh WSW 6.8 mph10.9 kmh 29.89 in1012.2 mb 0.00 in0.0 mm 0.00 in0.0 mm 0.00 in0.0 mm
12:12 AM 82.0°F27.8°C 71.2°F21.8°C 70% 3.7 mph S6.0 kmh S 6.3 mph10.1 kmh 29.89 in1012.2 mb 0.00 in0.0 mm 0.00 in0.0 mm 0.00 in0.0 mm
12:11 AM 82.0°F27.8°C 71.2°F21.8°C 70% 6.3 mph W10.1 kmh W 6.3 mph10.1 kmh 29.89 in1012.2 mb 0.00 in0.0 mm 0.00 in0.0 mm 0.00 in0.0 mm
12:10 AM 82.0°F27.8°C 71.2°F21.8°C 70% 5.3 mph SW8.5 kmh SW 6.3 mph10.1 kmh 29.89 in1012.2 mb 0.00 in0.0 mm 0.00 in0.0 mm 0.00 in0.0 mm
12:09 AM 82.0°F27.8°C 71.2°F21.8°C 70% 4.2 mph W6.8 kmh W 6.3 mph10.1 kmh 29.89 in1012.2 mb 0.00 in0.0 mm 0.00 in0.0 mm 0.00 in0.0 mm
12:08 AM 82.0°F27.8°C 71.2°F21.8°C 70% 4.7 mph SW7.6 kmh SW 6.3 mph10.1 kmh 29.89 in1012.2 mb 0.00 in0.0 mm 0.00 in0.0 mm 0.00 in0.0 mm
12:07 AM 82.0°F27.8°C 70.8°F21.6°C 69% 3.7 mph SW6.0 kmh SW 6.3 mph10.1 kmh 29.89 in1012.2 mb 0.00 in0.0 mm 0.00 in0.0 mm 0.00 in0.0 mm
12:06 AM 82.0°F27.8°C 70.8°F21.6°C 69% 5.8 mph WSW9.3 kmh WSW 6.3 mph10.1 kmh 29.89 in1012.2 mb 0.00 in0.0 mm 0.00 in0.0 mm 0.00 in0.0 mm
12:05 AM 82.0°F27.8°C 70.8°F21.6°C 69% 5.8 mph WNW9.3 kmh WNW 6.3 mph10.1 kmh 29.89 in1012.2 mb 0.00 in0.0 mm 0.00 in0.0 mm 0.00 in0.0 mm
12:04 AM 82.2°F27.9°C 71.0°F21.7°C 69% 3.7 mph W6.0 kmh W 6.8 mph10.9 kmh 29.89 in1012.2 mb 0.00 in0.0 mm 0.00 in0.0 mm 0.00 in0.0 mm
12:03 AM 82.2°F27.9°C 71.0°F21.7°C 69% 4.2 mph SW6.8 kmh SW 7.3 mph11.7 kmh 29.89 in1012.2 mb 0.00 in0.0 mm 0.00 in0.0 mm 0.00 in0.0 mm
12:02 AM 82.2°F27.9°C 71.0°F21.7°C 69% 4.2 mph SW6.8 kmh SW 7.3 mph11.7 kmh 29.89 in1012.2 mb 0.00 in0.0 mm 0.00 in0.0 mm 0.00 in0.0 mm
12:01 AM 82.2°F27.9°C 71.0°F21.7°C 69% 3.7 mph WNW6.0 kmh WNW 7.3 mph11.7 kmh 29.88 in1011.9 mb 0.00 in0.0 mm 0.00 in0.0 mm 0.00 in0.0 mm
12:00 AM 82.2°F27.9°C 71.0°F21.7°C 69% 5.8 mph SW9.3 kmh SW 7.3 mph11.7 kmh 29.88 in1011.9 mb 0.00 in0.0 mm 0.00 in0.0 mm 0.00 in0.0 mm